Time;durP1;ratioP1;P1;durP2;ratioP2;P2;SDS_P1;SDS_P2;PMS_P1;PMS_P2;Temp;Humidity;BMP_temperature;BMP_pressure;BME280_temperature;BME280_humidity;BME280_pressure;Samples;Min_cycle;Max_cycle;Signal;HPM_P1;HPM_P2
2023/09/22 00:02:03;;;;;;;1.20;1.00;;;;;;;;;;4933411;29;20250;-76
2023/09/22 00:04:28;;;;;;;0.97;0.90;;;;;;;;;;4917519;29;20341;-76
2023/09/22 00:06:54;;;;;;;0.60;0.60;;;;;;;;;;4929469;29;20271;-76
2023/09/22 00:09:19;;;;;;;0.87;0.87;;;;;;;;;;4916279;29;20201;-75
2023/09/22 00:11:44;;;;;;;2.47;0.83;;;;;;;;;;4917613;29;20269;-76
2023/09/22 00:14:10;;;;;;;0.70;0.70;;;;;;;;;;4916116;29;20189;-75
2023/09/22 00:16:35;;;;;;;0.80;0.80;;;;;;;;;;4914718;29;20197;-75
2023/09/22 00:19:05;;;;;;;1.03;0.80;;;;;;;;;;4933864;28;20223;-76
2023/09/22 00:21:30;;;;;;;1.77;0.83;;;;;;;;;;4915276;29;20193;-76
2023/09/22 00:23:56;;;;;;;1.23;0.90;;;;;;;;;;4916051;29;20182;-75
2023/09/22 00:26:21;;;;;;;2.50;0.90;;;;;;;;;;4930976;29;20282;-75
2023/09/22 00:28:47;;;;;;;0.97;0.90;;;;;;;;;;4930333;29;20186;-75
2023/09/22 00:31:12;;;;;;;1.70;0.90;;;;;;;;;;4932910;29;20237;-76
2023/09/22 00:33:37;;;;;;;1.27;0.80;;;;;;;;;;4930799;29;20236;-76
2023/09/22 00:36:02;;;;;;;1.00;0.90;;;;;;;;;;4934975;29;20210;-75
2023/09/22 00:38:28;;;;;;;1.33;1.00;;;;;;;;;;4932574;29;20174;-75
2023/09/22 00:40:53;;;;;;;0.90;0.90;;;;;;;;;;4915524;29;20212;-75
2023/09/22 00:43:18;;;;;;;1.00;1.00;;;;;;;;;;4915051;29;20249;-75
2023/09/22 00:45:47;;;;;;;1.00;1.00;;;;;;;;;;4930354;29;20186;-76
2023/09/22 00:48:17;;;;;;;1.33;1.10;;;;;;;;;;4927507;29;20186;-75
2023/09/22 00:50:42;;;;;;;1.03;0.80;;;;;;;;;;4915568;29;20178;-75
2023/09/22 00:53:08;;;;;;;0.90;0.90;;;;;;;;;;4930905;29;20194;-75
2023/09/22 00:55:33;;;;;;;0.80;0.80;;;;;;;;;;4914066;29;20194;-75
2023/09/22 00:57:59;;;;;;;1.10;1.00;;;;;;;;;;4911690;29;20191;-75
2023/09/22 01:00:27;;;;;;;1.10;1.00;;;;;;;;;;4929520;29;20189;-75
2023/09/22 01:02:52;;;;;;;0.80;0.70;;;;;;;;;;4917774;29;20189;-75
2023/09/22 01:05:17;;;;;;;3.10;1.00;;;;;;;;;;4933045;29;20326;-75
2023/09/22 01:07:44;;;;;;;1.37;1.20;;;;;;;;;;4932674;29;20188;-75
2023/09/22 01:10:10;;;;;;;0.80;0.80;;;;;;;;;;4931546;29;20193;-75
2023/09/22 01:12:35;;;;;;;0.87;0.87;;;;;;;;;;4931468;29;20201;-75
2023/09/22 01:15:01;;;;;;;1.50;0.80;;;;;;;;;;4912663;29;20178;-75
2023/09/22 01:17:26;;;;;;;1.23;1.13;;;;;;;;;;4914784;29;20253;-75
2023/09/22 01:19:51;;;;;;;3.60;1.10;;;;;;;;;;4933390;29;20175;-75
2023/09/22 01:22:16;;;;;;;0.97;0.87;;;;;;;;;;4915946;29;20269;-75
2023/09/22 01:24:41;;;;;;;1.20;0.90;;;;;;;;;;4930642;29;20189;-75
2023/09/22 01:27:08;;;;;;;0.70;0.70;;;;;;;;;;4918161;29;20204;-75
2023/09/22 01:29:33;;;;;;;0.80;0.80;;;;;;;;;;4928215;29;20184;-75
2023/09/22 01:32:00;;;;;;;0.90;0.80;;;;;;;;;;4915243;29;20220;-74
2023/09/22 01:34:25;;;;;;;1.40;1.20;;;;;;;;;;4931636;29;20192;-75
2023/09/22 01:36:50;;;;;;;1.47;1.20;;;;;;;;;;4927337;29;20250;-74
2023/09/22 01:39:16;;;;;;;1.00;0.90;;;;;;;;;;4931300;29;20181;-75
2023/09/22 01:41:41;;;;;;;0.83;0.83;;;;;;;;;;4914893;29;20211;-74
2023/09/22 01:44:07;;;;;;;1.20;1.10;;;;;;;;;;4933275;29;20175;-74
2023/09/22 01:46:32;;;;;;;0.97;0.97;;;;;;;;;;4928465;29;20187;-74
2023/09/22 01:48:57;;;;;;;1.67;1.30;;;;;;;;;;4931415;29;20259;-74
2023/09/22 01:51:23;;;;;;;1.70;1.60;;;;;;;;;;4930074;29;20201;-75
2023/09/22 01:53:48;;;;;;;2.17;1.00;;;;;;;;;;4927682;29;20191;-75
2023/09/22 01:56:14;;;;;;;0.90;0.90;;;;;;;;;;4915536;29;20257;-74
2023/09/22 01:58:39;;;;;;;1.10;1.00;;;;;;;;;;4932155;29;20176;-74
2023/09/22 02:01:04;;;;;;;1.10;1.00;;;;;;;;;;4933121;29;20221;-75
2023/09/22 02:03:30;;;;;;;1.33;1.20;;;;;;;;;;4933207;29;20198;-75
2023/09/22 02:05:55;;;;;;;1.37;1.00;;;;;;;;;;4919886;29;20199;-75
2023/09/22 02:08:20;;;;;;;1.10;1.00;;;;;;;;;;4922463;29;20308;-75
2023/09/22 02:10:45;;;;;;;2.33;1.00;;;;;;;;;;4937875;29;20177;-74
2023/09/22 02:13:10;;;;;;;1.17;0.90;;;;;;;;;;4917716;29;20190;-74
2023/09/22 02:15:36;;;;;;;1.23;1.10;;;;;;;;;;4925253;28;20267;-75
2023/09/22 02:18:01;;;;;;;1.67;1.33;;;;;;;;;;4934001;29;20313;-74
2023/09/22 02:20:27;;;;;;;1.10;1.03;;;;;;;;;;4917309;29;20191;-75
2023/09/22 02:22:56;;;;;;;1.40;1.10;;;;;;;;;;4914703;29;20185;-74
2023/09/22 02:25:22;;;;;;;1.00;0.70;;;;;;;;;;4917267;29;20279;-74
2023/09/22 02:27:48;;;;;;;1.03;0.80;;;;;;;;;;4933010;29;20282;-74
2023/09/22 02:30:14;;;;;;;3.03;1.27;;;;;;;;;;4919677;29;20274;-74
2023/09/22 02:32:40;;;;;;;1.30;1.20;;;;;;;;;;4930716;29;20215;-74
2023/09/22 02:35:06;;;;;;;1.10;1.00;;;;;;;;;;4934294;29;20182;-74
2023/09/22 02:37:31;;;;;;;1.23;0.90;;;;;;;;;;4934024;29;20236;-75
2023/09/22 02:39:57;;;;;;;1.00;1.00;;;;;;;;;;4938627;29;20187;-74
2023/09/22 02:42:22;;;;;;;1.20;1.00;;;;;;;;;;4933510;29;20175;-74
2023/09/22 02:44:47;;;;;;;1.10;1.10;;;;;;;;;;4934972;29;20209;-75
2023/09/22 02:47:13;;;;;;;1.20;0.83;;;;;;;;;;4918686;29;20190;-74
2023/09/22 02:49:38;;;;;;;1.93;1.10;;;;;;;;;;4934878;29;20182;-75
2023/09/22 02:52:03;;;;;;;1.13;1.00;;;;;;;;;;4933565;29;20195;-74
2023/09/22 02:54:29;;;;;;;0.90;0.90;;;;;;;;;;4935903;29;20186;-74
2023/09/22 02:56:54;;;;;;;1.60;1.00;;;;;;;;;;4934354;29;20175;-74
2023/09/22 02:59:19;;;;;;;2.90;1.30;;;;;;;;;;4919389;29;20190;-74
2023/09/22 03:01:45;;;;;;;1.60;1.10;;;;;;;;;;4919287;29;20194;-74
2023/09/22 03:04:10;;;;;;;1.07;1.00;;;;;;;;;;4934380;29;20187;-74
2023/09/22 03:06:36;;;;;;;0.87;0.87;;;;;;;;;;4933239;29;20176;-74
2023/09/22 03:09:06;;;;;;;1.30;1.20;;;;;;;;;;4918649;29;20219;-75
2023/09/22 03:11:31;;;;;;;1.40;1.10;;;;;;;;;;4927935;29;20251;-74
2023/09/22 03:13:56;;;;;;;1.30;1.20;;;;;;;;;;4931958;29;20478;-74
2023/09/22 03:16:22;;;;;;;1.30;0.93;;;;;;;;;;4934507;29;20200;-74
2023/09/22 03:18:49;;;;;;;1.00;0.90;;;;;;;;;;4931795;29;20239;-74
2023/09/22 03:21:19;;;;;;;1.40;1.30;;;;;;;;;;4932225;29;20243;-74
2023/09/22 03:23:46;;;;;;;1.67;1.23;;;;;;;;;;4916395;29;20216;-74
2023/09/22 03:26:11;;;;;;;2.07;1.00;;;;;;;;;;4935072;29;20179;-74
2023/09/22 03:28:37;;;;;;;2.40;1.53;;;;;;;;;;4914003;29;20180;-74
2023/09/22 03:31:03;;;;;;;0.80;0.80;;;;;;;;;;4916824;29;20195;-74
2023/09/22 03:33:28;;;;;;;3.77;1.00;;;;;;;;;;4932515;29;20186;-74
2023/09/22 03:35:54;;;;;;;1.17;1.07;;;;;;;;;;4934963;29;20278;-74
2023/09/22 03:38:19;;;;;;;2.43;0.90;;;;;;;;;;4935650;29;20254;-74
2023/09/22 03:40:44;;;;;;;2.07;1.13;;;;;;;;;;4932828;29;20182;-74
2023/09/22 03:43:09;;;;;;;1.63;1.20;;;;;;;;;;4938349;29;20183;-74
2023/09/22 03:45:34;;;;;;;1.27;1.17;;;;;;;;;;4936212;29;20275;-74
2023/09/22 03:48:00;;;;;;;1.10;1.00;;;;;;;;;;4918294;29;20187;-74
2023/09/22 03:50:25;;;;;;;3.03;0.90;;;;;;;;;;4914693;29;20213;-74
2023/09/22 03:52:50;;;;;;;1.33;1.10;;;;;;;;;;4931970;29;20207;-74
2023/09/22 03:55:16;;;;;;;1.30;1.00;;;;;;;;;;4933808;29;20435;-74
2023/09/22 03:57:41;;;;;;;2.03;0.90;;;;;;;;;;4931209;29;20175;-74
2023/09/22 04:00:17;;;;;;;1.20;1.10;;;;;;;;;;4935449;29;20175;-74
2023/09/22 04:02:42;;;;;;;1.30;1.30;;;;;;;;;;4932383;29;20171;-74
2023/09/22 04:05:08;;;;;;;2.40;1.10;;;;;;;;;;4933038;29;20178;-74
2023/09/22 04:07:33;;;;;;;3.20;1.30;;;;;;;;;;4933101;29;20183;-74
2023/09/22 04:09:58;;;;;;;4.83;1.43;;;;;;;;;;4931014;29;20186;-74
2023/09/22 04:12:24;;;;;;;1.97;1.27;;;;;;;;;;4928826;29;20401;-74
2023/09/22 04:14:49;;;;;;;1.97;1.33;;;;;;;;;;4935792;29;20189;-74
2023/09/22 04:17:14;;;;;;;2.33;1.37;;;;;;;;;;4928987;29;20219;-74
2023/09/22 04:19:39;;;;;;;1.40;1.20;;;;;;;;;;4931031;29;20242;-74
2023/09/22 04:22:07;;;;;;;1.30;1.20;;;;;;;;;;4914880;29;20269;-74
2023/09/22 04:24:32;;;;;;;2.33;1.20;;;;;;;;;;4931229;29;20208;-74
2023/09/22 04:27:01;;;;;;;1.40;1.30;;;;;;;;;;4917542;29;20186;-74
2023/09/22 04:29:27;;;;;;;1.57;1.47;;;;;;;;;;4933878;29;20176;-74
2023/09/22 04:31:53;;;;;;;1.30;1.20;;;;;;;;;;4932529;29;20206;-74
2023/09/22 04:34:19;;;;;;;1.47;1.37;;;;;;;;;;4928883;29;20190;-74
2023/09/22 04:36:44;;;;;;;2.10;1.63;;;;;;;;;;4927165;29;20211;-74
2023/09/22 04:39:10;;;;;;;2.07;1.50;;;;;;;;;;4927628;29;20189;-74
2023/09/22 04:41:35;;;;;;;2.47;1.67;;;;;;;;;;4930882;29;20210;-74
2023/09/22 04:44:02;;;;;;;4.47;1.50;;;;;;;;;;4932886;29;20212;-74
2023/09/22 04:46:27;;;;;;;2.07;1.57;;;;;;;;;;4914847;29;20273;-74
2023/09/22 04:48:54;;;;;;;1.47;1.37;;;;;;;;;;4928861;29;20253;-74
2023/09/22 04:51:19;;;;;;;3.50;1.83;;;;;;;;;;4931093;29;20206;-74
2023/09/22 04:53:45;;;;;;;7.60;2.27;;;;;;;;;;4913501;29;20258;-74
2023/09/22 04:56:10;;;;;;;1.90;1.57;;;;;;;;;;4913432;29;20185;-74
2023/09/22 04:58:38;;;;;;;1.70;1.60;;;;;;;;;;4929178;29;20186;-74
2023/09/22 05:01:03;;;;;;;1.60;1.30;;;;;;;;;;4927927;29;20170;-74
2023/09/22 05:03:29;;;;;;;1.83;1.37;;;;;;;;;;4929359;29;20268;-74
2023/09/22 05:05:54;;;;;;;2.07;1.87;;;;;;;;;;4928172;29;20503;-74
2023/09/22 05:08:20;;;;;;;1.80;1.43;;;;;;;;;;4915093;29;20189;-74
2023/09/22 05:10:48;;;;;;;1.73;1.63;;;;;;;;;;4933612;29;20210;-74
2023/09/22 05:13:15;;;;;;;1.90;1.80;;;;;;;;;;4915407;29;20255;-74
2023/09/22 05:15:41;;;;;;;2.47;1.67;;;;;;;;;;4911102;29;20171;-74
2023/09/22 05:18:07;;;;;;;2.00;1.90;;;;;;;;;;4932084;29;20268;-74
2023/09/22 05:20:32;;;;;;;1.50;1.40;;;;;;;;;;4916222;29;20281;-74
2023/09/22 05:22:57;;;;;;;2.00;1.80;;;;;;;;;;4931684;29;20643;-74
2023/09/22 05:25:23;;;;;;;1.70;1.60;;;;;;;;;;4920677;29;20274;-74
2023/09/22 05:27:48;;;;;;;2.33;1.40;;;;;;;;;;4912422;29;20191;-74
2023/09/22 05:30:14;;;;;;;1.67;1.57;;;;;;;;;;4916493;29;20187;-74
2023/09/22 05:32:41;;;;;;;2.00;1.60;;;;;;;;;;4928536;29;20206;-74
2023/09/22 05:35:06;;;;;;;1.47;1.20;;;;;;;;;;4919111;29;20178;-74
2023/09/22 05:37:31;;;;;;;2.47;1.50;;;;;;;;;;4910560;29;20190;-74
2023/09/22 05:39:56;;;;;;;2.47;1.50;;;;;;;;;;4913652;29;20213;-74
2023/09/22 05:42:22;;;;;;;2.63;1.63;;;;;;;;;;4931009;29;20177;-74
2023/09/22 05:44:47;;;;;;;1.90;1.10;;;;;;;;;;4915588;29;20187;-74
2023/09/22 05:47:12;;;;;;;2.90;1.43;;;;;;;;;;4927527;29;20249;-74
2023/09/22 05:49:37;;;;;;;1.50;1.40;;;;;;;;;;4911146;29;20190;-74
2023/09/22 05:52:03;;;;;;;6.50;1.90;;;;;;;;;;4915581;29;20269;-74
2023/09/22 05:54:29;;;;;;;1.57;1.40;;;;;;;;;;4927610;29;20185;-74
2023/09/22 05:56:54;;;;;;;4.97;2.07;;;;;;;;;;4927424;29;20179;-74
2023/09/22 05:59:22;;;;;;;2.10;1.67;;;;;;;;;;4929385;29;20179;-75
2023/09/22 06:01:47;;;;;;;1.90;1.27;;;;;;;;;;4908254;29;20246;-74
2023/09/22 06:04:13;;;;;;;2.20;1.27;;;;;;;;;;4914142;29;20632;-74
2023/09/22 06:06:38;;;;;;;208.53;19.43;;;;;;;;;;4909825;29;20186;-74
2023/09/22 06:09:10;;;;;;;1.50;1.40;;;;;;;;;;4930702;29;20182;-74
2023/09/22 06:11:35;;;;;;;2.17;1.30;;;;;;;;;;4917975;29;20194;-74
2023/09/22 06:14:03;;;;;;;2.43;1.40;;;;;;;;;;4929137;29;20259;-74
2023/09/22 06:16:30;;;;;;;1.70;1.37;;;;;;;;;;4927989;29;20513;-74
2023/09/22 06:18:55;;;;;;;1.30;1.20;;;;;;;;;;4927273;29;20270;-74
2023/09/22 06:21:21;;;;;;;1.30;1.20;;;;;;;;;;4929638;29;20186;-74
2023/09/22 06:23:47;;;;;;;1.57;1.47;;;;;;;;;;4929128;29;20188;-74
2023/09/22 06:26:12;;;;;;;1.47;1.20;;;;;;;;;;4930018;29;20194;-74
2023/09/22 06:28:41;;;;;;;1.40;1.20;;;;;;;;;;4915064;29;20187;-74
2023/09/22 06:31:06;;;;;;;1.23;1.13;;;;;;;;;;4914237;29;20179;-74
2023/09/22 06:33:32;;;;;;;1.20;1.10;;;;;;;;;;4929583;29;20175;-74
2023/09/22 06:35:58;;;;;;;1.37;1.27;;;;;;;;;;4922338;29;20179;-75
2023/09/22 06:38:23;;;;;;;2.73;1.03;;;;;;;;;;4928516;29;20177;-74
2023/09/22 06:40:50;;;;;;;1.60;1.30;;;;;;;;;;4930350;29;20192;-74
2023/09/22 06:43:15;;;;;;;1.03;1.03;;;;;;;;;;4932568;29;20183;-74
2023/09/22 06:45:41;;;;;;;30.43;3.80;;;;;;;;;;4932896;29;20190;-74
2023/09/22 06:48:06;;;;;;;2.67;1.30;;;;;;;;;;4932677;29;20179;-74
2023/09/22 06:50:38;;;;;;;1.73;1.30;;;;;;;;;;4921928;29;20184;-74
2023/09/22 06:53:03;;;;;;;2.47;1.30;;;;;;;;;;4915588;29;20314;-74
2023/09/22 06:55:30;;;;;;;1.50;1.20;;;;;;;;;;4930204;29;20266;-74
2023/09/22 06:57:57;;;;;;;50.53;6.17;;;;;;;;;;4929620;29;20190;-74
2023/09/22 07:00:27;;;;;;;3.43;1.57;;;;;;;;;;4927536;29;20186;-74
2023/09/22 07:02:52;;;;;;;3.50;1.27;;;;;;;;;;4933424;29;20274;-74
2023/09/22 07:05:19;;;;;;;3.00;1.90;;;;;;;;;;4918213;29;20318;-74
2023/09/22 07:07:44;;;;;;;1.20;1.10;;;;;;;;;;4935451;29;20278;-74
2023/09/22 07:10:10;;;;;;;2.53;1.53;;;;;;;;;;4933802;29;20270;-74
2023/09/22 07:12:36;;;;;;;1.43;1.27;;;;;;;;;;4937286;29;20210;-74
2023/09/22 07:15:02;;;;;;;4.43;1.67;;;;;;;;;;4917822;29;20186;-74
2023/09/22 07:17:27;;;;;;;1.50;1.40;;;;;;;;;;4921984;29;20459;-74
2023/09/22 07:19:53;;;;;;;1.40;1.30;;;;;;;;;;4918168;29;20182;-74
2023/09/22 07:22:19;;;;;;;1.63;1.20;;;;;;;;;;4934328;29;20237;-74
2023/09/22 07:24:44;;;;;;;1.57;1.47;;;;;;;;;;4917361;29;20202;-74
2023/09/22 07:27:09;;;;;;;129.10;14.17;;;;;;;;;;4932880;29;20183;-74
2023/09/22 07:29:35;;;;;;;1.40;1.30;;;;;;;;;;4934397;29;20178;-74
2023/09/22 07:32:00;;;;;;;2.73;1.40;;;;;;;;;;4933297;29;20206;-74
2023/09/22 07:34:25;;;;;;;1.30;1.20;;;;;;;;;;4917901;29;20215;-74
2023/09/22 07:36:51;;;;;;;3.20;1.60;;;;;;;;;;4931487;29;20189;-74
2023/09/22 07:39:16;;;;;;;1.10;1.00;;;;;;;;;;4936861;29;20180;-74
2023/09/22 07:41:42;;;;;;;2.23;1.33;;;;;;;;;;4933538;29;20187;-74
2023/09/22 07:44:07;;;;;;;2.00;1.80;;;;;;;;;;4933276;29;20179;-74
2023/09/22 07:46:32;;;;;;;2.60;1.70;;;;;;;;;;4931967;29;20192;-74
2023/09/22 07:48:57;;;;;;;3.57;1.70;;;;;;;;;;4918226;29;20181;-75
2023/09/22 07:51:23;;;;;;;1.93;1.40;;;;;;;;;;4930252;29;20298;-76
2023/09/22 07:53:48;;;;;;;2.50;1.40;;;;;;;;;;4931803;29;20191;-77
2023/09/22 07:56:16;;;;;;;1.40;1.30;;;;;;;;;;4927044;29;20186;-77
2023/09/22 07:58:41;;;;;;;2.63;1.17;;;;;;;;;;4916713;29;20232;-78
2023/09/22 08:01:11;;;;;;;1.43;1.33;;;;;;;;;;4927375;29;20184;-78
2023/09/22 08:03:37;;;;;;;1.70;1.60;;;;;;;;;;4935761;29;20185;-78
2023/09/22 08:06:05;;;;;;;1.90;1.70;;;;;;;;;;4917197;29;20234;-78
2023/09/22 08:08:31;;;;;;;1.53;1.30;;;;;;;;;;4938560;29;20186;-80
2023/09/22 08:10:56;;;;;;;2.23;1.90;;;;;;;;;;4918652;29;20184;-80
2023/09/22 08:13:22;;;;;;;2.20;1.30;;;;;;;;;;4933396;29;20208;-80
2023/09/22 08:15:48;;;;;;;1.23;1.13;;;;;;;;;;4915916;29;20201;-80
2023/09/22 08:18:13;;;;;;;1.70;1.60;;;;;;;;;;4912327;29;20228;-79
2023/09/22 08:20:39;;;;;;;1.77;1.53;;;;;;;;;;4916817;29;20172;-78
2023/09/22 08:23:04;;;;;;;1.53;1.43;;;;;;;;;;4913371;29;20185;-79
2023/09/22 08:25:30;;;;;;;4.03;2.03;;;;;;;;;;4915622;29;20185;-78
2023/09/22 08:27:56;;;;;;;1.70;1.60;;;;;;;;;;4916581;29;20188;-79
2023/09/22 08:30:21;;;;;;;2.83;1.57;;;;;;;;;;4918970;29;20232;-79
2023/09/22 08:32:47;;;;;;;1.90;1.53;;;;;;;;;;4914638;29;20212;-78
2023/09/22 08:35:13;;;;;;;1.50;1.30;;;;;;;;;;4929775;29;20180;-78
2023/09/22 08:37:40;;;;;;;1.63;1.40;;;;;;;;;;4917723;29;20175;-79
2023/09/22 08:40:11;;;;;;;1.50;1.40;;;;;;;;;;4911798;29;20185;-78
2023/09/22 08:42:37;;;;;;;1.53;1.43;;;;;;;;;;4905364;29;20186;-79
2023/09/22 08:45:03;;;;;;;1.70;1.57;;;;;;;;;;4914027;29;20197;-77
2023/09/22 08:47:28;;;;;;;3.93;3.63;;;;;;;;;;4910836;29;20485;-77
2023/09/22 08:49:53;;;;;;;1.93;1.50;;;;;;;;;;4909609;29;20345;-77
2023/09/22 08:52:22;;;;;;;1.50;1.17;;;;;;;;;;4911999;29;20259;-77
2023/09/22 08:54:47;;;;;;;1.60;1.00;;;;;;;;;;4913479;29;20190;-77
2023/09/22 08:57:14;;;;;;;1.67;1.30;;;;;;;;;;4911051;29;20213;-77
2023/09/22 08:59:41;;;;;;;2.17;1.20;;;;;;;;;;4913191;29;20236;-77
2023/09/22 09:02:08;;;;;;;2.03;1.80;;;;;;;;;;4914838;29;20181;-77
2023/09/22 09:04:39;;;;;;;2.23;1.83;;;;;;;;;;4915275;29;20177;-77
2023/09/22 09:07:07;;;;;;;2.50;1.20;;;;;;;;;;4906933;29;20184;-77
2023/09/22 09:09:45;;;;;;;2.40;1.53;;;;;;;;;;4914606;29;20290;-77
2023/09/22 09:12:11;;;;;;;1.10;1.00;;;;;;;;;;4914085;29;20213;-77
2023/09/22 09:14:43;;;;;;;2.80;1.30;;;;;;;;;;4910742;29;20390;-77
2023/09/22 09:17:16;;;;;;;3.07;1.80;;;;;;;;;;4911748;29;20253;-77
2023/09/22 09:19:41;;;;;;;1.37;0.97;;;;;;;;;;4932901;29;20227;-77
2023/09/22 09:22:11;;;;;;;1.20;1.20;;;;;;;;;;4930458;29;20281;-77
2023/09/22 09:24:36;;;;;;;1.30;1.10;;;;;;;;;;4929957;29;20187;-77
2023/09/22 09:27:18;;;;;;;4.07;1.17;;;;;;;;;;4931170;29;20189;-76
2023/09/22 09:29:44;;;;;;;1.00;0.90;;;;;;;;;;4915262;29;20216;-77
2023/09/22 09:32:10;;;;;;;1.37;1.10;;;;;;;;;;4929876;29;20233;-77
2023/09/22 09:34:40;;;;;;;1.43;1.33;;;;;;;;;;4914509;29;20212;-77
2023/09/22 09:37:13;;;;;;;3.10;1.20;;;;;;;;;;4914003;29;20189;-76
2023/09/22 09:39:45;;;;;;;1.00;1.00;;;;;;;;;;4929628;29;20221;-77
2023/09/22 09:42:18;;;;;;;2.40;1.50;;;;;;;;;;4915554;29;20188;-76
2023/09/22 09:44:54;;;;;;;1.10;1.00;;;;;;;;;;4931108;29;20212;-76
2023/09/22 09:47:27;;;;;;;1.10;1.00;;;;;;;;;;4917346;29;20177;-76
2023/09/22 09:49:53;;;;;;;2.83;1.50;;;;;;;;;;4929986;29;20211;-76
2023/09/22 09:52:24;;;;;;;1.07;1.07;;;;;;;;;;4922219;29;20221;-75
2023/09/22 09:54:52;;;;;;;1.87;1.40;;;;;;;;;;4931550;29;20207;-75
2023/09/22 09:57:18;;;;;;;1.13;1.07;;;;;;;;;;4914411;29;20221;-75
2023/09/22 09:59:44;;;;;;;1.20;1.10;;;;;;;;;;4926967;29;20189;-75
2023/09/22 10:02:10;;;;;;;4.77;1.30;;;;;;;;;;4924344;29;20237;-75
2023/09/22 10:04:36;;;;;;;2.77;0.80;;;;;;;;;;4925372;29;20193;-75
2023/09/22 10:07:01;;;;;;;2.90;1.20;;;;;;;;;;4931892;29;20182;-75
2023/09/22 10:09:27;;;;;;;1.33;1.10;;;;;;;;;;4917448;29;20194;-75
2023/09/22 10:11:52;;;;;;;0.80;0.80;;;;;;;;;;4931595;29;20246;-75
2023/09/22 10:14:36;;;;;;;1.30;0.93;;;;;;;;;;4921814;29;20185;-75
2023/09/22 10:17:01;;;;;;;1.20;0.90;;;;;;;;;;4930504;29;20194;-75
2023/09/22 10:19:40;;;;;;;0.93;0.90;;;;;;;;;;4916984;29;20226;-75
2023/09/22 10:22:14;;;;;;;0.83;0.80;;;;;;;;;;4931237;29;20186;-75
2023/09/22 10:24:40;;;;;;;1.03;0.97;;;;;;;;;;4934960;29;20177;-75
2023/09/22 10:27:07;;;;;;;0.97;0.90;;;;;;;;;;4935562;29;20185;-75
2023/09/22 10:29:33;;;;;;;3.10;1.13;;;;;;;;;;4935784;29;20236;-75
2023/09/22 10:32:16;;;;;;;0.97;0.80;;;;;;;;;;4934381;29;20301;-75
2023/09/22 10:35:09;;;;;;;0.70;0.70;;;;;;;;;;4933443;29;20184;-75
2023/09/22 10:37:35;;;;;;;1.60;1.17;;;;;;;;;;4935519;29;20175;-75
2023/09/22 10:40:19;;;;;;;3.63;1.10;;;;;;;;;;4932848;29;20184;-75
2023/09/22 10:42:52;;;;;;;1.20;1.10;;;;;;;;;;4931036;29;20187;-75
2023/09/22 10:45:23;;;;;;;1.23;0.80;;;;;;;;;;4932008;29;20184;-75
2023/09/22 10:47:52;;;;;;;0.70;0.70;;;;;;;;;;4919686;29;20221;-75
2023/09/22 10:50:26;;;;;;;0.87;0.87;;;;;;;;;;4935934;29;20171;-75
2023/09/22 10:52:54;;;;;;;0.70;0.70;;;;;;;;;;4924223;29;20202;-74
2023/09/22 10:55:45;;;;;;;2.70;1.80;;;;;;;;;;4933133;29;20179;-75
2023/09/22 10:58:11;;;;;;;1.80;1.13;;;;;;;;;;4930733;29;20390;-75
2023/09/22 11:00:42;;;;;;;0.97;0.70;;;;;;;;;;4925508;29;20276;-75
2023/09/22 11:03:10;;;;;;;2.23;1.03;;;;;;;;;;4936760;29;20180;-75
2023/09/22 11:05:37;;;;;;;2.53;1.13;;;;;;;;;;4916656;29;20520;-75
2023/09/22 11:08:16;;;;;;;1.30;0.87;;;;;;;;;;4934356;29;20190;-75
2023/09/22 11:10:48;;;;;;;2.83;1.30;;;;;;;;;;4933171;29;20563;-75
2023/09/22 11:13:14;;;;;;;0.90;0.90;;;;;;;;;;4927097;29;20206;-75
2023/09/22 11:16:01;;;;;;;1.30;1.10;;;;;;;;;;4918889;29;20176;-75
2023/09/22 11:18:32;;;;;;;1.23;0.70;;;;;;;;;;4913585;29;20316;-74
2023/09/22 11:20:58;;;;;;;1.10;1.00;;;;;;;;;;4907499;29;20183;-74
2023/09/22 11:23:24;;;;;;;1.43;1.07;;;;;;;;;;4915654;29;20270;-74
2023/09/22 11:25:59;;;;;;;2.13;1.00;;;;;;;;;;4911008;29;20188;-74
2023/09/22 11:28:26;;;;;;;2.87;1.00;;;;;;;;;;4910070;29;21634;-74
2023/09/22 11:30:51;;;;;;;5.03;1.43;;;;;;;;;;4911294;29;20214;-74
2023/09/22 11:33:17;;;;;;;5.20;0.97;;;;;;;;;;4912710;29;20308;-74
2023/09/22 11:35:42;;;;;;;0.80;0.80;;;;;;;;;;4914242;29;20186;-74
2023/09/22 11:38:26;;;;;;;2.83;1.20;;;;;;;;;;4914091;29;20197;-74
2023/09/22 11:41:01;;;;;;;11.20;1.93;;;;;;;;;;4926109;29;20553;-74
2023/09/22 11:43:26;;;;;;;3.27;1.30;;;;;;;;;;4915913;29;20182;-74
2023/09/22 11:46:03;;;;;;;1.27;0.93;;;;;;;;;;4915372;29;20194;-74
2023/09/22 11:48:28;;;;;;;2.37;1.03;;;;;;;;;;4912679;29;20178;-74
2023/09/22 11:50:54;;;;;;;1.70;0.93;;;;;;;;;;4910642;29;20237;-74
2023/09/22 11:53:19;;;;;;;3.47;1.20;;;;;;;;;;4915046;29;20202;-74
2023/09/22 11:55:46;;;;;;;1.13;0.70;;;;;;;;;;4910418;29;20246;-74
2023/09/22 11:58:11;;;;;;;1.47;1.37;;;;;;;;;;4913386;29;20273;-74
2023/09/22 12:00:38;;;;;;;7.87;1.70;;;;;;;;;;4915112;29;20247;-74
2023/09/22 12:03:03;;;;;;;2.73;1.40;;;;;;;;;;4915389;29;20252;-74
2023/09/22 12:05:29;;;;;;;1.60;1.10;;;;;;;;;;4931464;29;20202;-74
2023/09/22 12:07:55;;;;;;;2.70;1.10;;;;;;;;;;4920325;29;20226;-74
2023/09/22 12:10:21;;;;;;;1.97;1.23;;;;;;;;;;4906624;29;20189;-74
2023/09/22 12:12:46;;;;;;;2.73;1.47;;;;;;;;;;4904893;29;20240;-74
2023/09/22 12:15:12;;;;;;;3.33;2.80;;;;;;;;;;4913997;29;20222;-74
2023/09/22 12:17:37;;;;;;;3.23;1.43;;;;;;;;;;4909758;29;20254;-74
2023/09/22 12:20:03;;;;;;;1.30;1.20;;;;;;;;;;4907282;29;20194;-74
2023/09/22 12:22:28;;;;;;;2.27;1.20;;;;;;;;;;4912172;29;20324;-74
2023/09/22 12:24:54;;;;;;;1.33;1.13;;;;;;;;;;4914618;29;20194;-74
2023/09/22 12:27:19;;;;;;;0.90;0.90;;;;;;;;;;4910010;29;20189;-74
2023/09/22 12:29:44;;;;;;;1.10;1.00;;;;;;;;;;4931164;29;20199;-74
2023/09/22 12:32:11;;;;;;;1.43;1.00;;;;;;;;;;4923177;29;20207;-74
2023/09/22 12:34:37;;;;;;;1.63;1.30;;;;;;;;;;4913082;29;20163;-74
2023/09/22 12:37:02;;;;;;;5.77;1.40;;;;;;;;;;4909978;29;20195;-74
2023/09/22 12:39:27;;;;;;;1.83;0.90;;;;;;;;;;4910342;29;20177;-74
2023/09/22 12:41:53;;;;;;;1.83;1.17;;;;;;;;;;4913650;29;20279;-74
2023/09/22 12:44:18;;;;;;;1.40;1.03;;;;;;;;;;4913324;29;20189;-74
2023/09/22 12:46:43;;;;;;;3.03;1.13;;;;;;;;;;4910636;29;20270;-74
2023/09/22 12:49:08;;;;;;;145.17;17.03;;;;;;;;;;4926355;29;20191;-74
2023/09/22 12:51:33;;;;;;;1.07;0.90;;;;;;;;;;4911769;29;20201;-74
2023/09/22 13:04:44;;;;;;;1.17;0.90;;;;;;;;;;4929901;29;20236;-71
2023/09/22 13:07:09;;;;;;;1.97;1.20;;;;;;;;;;4930545;29;20185;-71
2023/09/22 13:09:34;;;;;;;1.27;1.17;;;;;;;;;;4911122;29;20239;-73
2023/09/22 13:12:02;;;;;;;1.70;1.20;;;;;;;;;;4913740;29;20263;-73
2023/09/22 13:14:27;;;;;;;1.67;1.17;;;;;;;;;;4932424;29;20170;-74
2023/09/22 13:16:52;;;;;;;9.40;1.90;;;;;;;;;;4928397;29;20185;-73
2023/09/22 13:19:18;;;;;;;1.77;1.10;;;;;;;;;;4930520;29;20180;-73
2023/09/22 13:21:43;;;;;;;1.60;1.30;;;;;;;;;;4916236;29;20188;-73
2023/09/22 13:24:08;;;;;;;2.23;1.20;;;;;;;;;;4916185;29;20185;-73
2023/09/22 13:26:33;;;;;;;2.00;1.27;;;;;;;;;;4917731;29;20192;-73
2023/09/22 13:28:59;;;;;;;1.53;1.10;;;;;;;;;;4927121;29;20193;-73
2023/09/22 13:31:25;;;;;;;2.00;1.10;;;;;;;;;;4922970;29;20182;-73
2023/09/22 13:33:50;;;;;;;2.10;1.37;;;;;;;;;;4931215;29;20193;-73
2023/09/22 13:36:16;;;;;;;2.83;1.40;;;;;;;;;;4929182;29;20196;-73
2023/09/22 13:38:41;;;;;;;1.53;1.17;;;;;;;;;;4933098;29;20218;-73
2023/09/22 13:41:13;;;;;;;1.10;0.93;;;;;;;;;;4912617;29;20200;-73
2023/09/22 13:43:38;;;;;;;1.77;1.20;;;;;;;;;;4931411;29;20290;-74
2023/09/22 13:46:14;;;;;;;1.70;1.00;;;;;;;;;;4918059;29;20197;-73
2023/09/22 13:48:40;;;;;;;1.23;1.10;;;;;;;;;;4925099;29;20194;-73
2023/09/22 13:51:05;;;;;;;2.43;1.30;;;;;;;;;;4929894;29;20191;-73
2023/09/22 13:53:33;;;;;;;1.00;0.90;;;;;;;;;;4914156;29;20299;-74
2023/09/22 13:55:58;;;;;;;2.73;1.30;;;;;;;;;;4935320;29;20258;-74
2023/09/22 13:58:23;;;;;;;1.33;1.00;;;;;;;;;;4935015;29;20282;-73
2023/09/22 14:00:49;;;;;;;2.10;1.20;;;;;;;;;;4918521;29;20188;-74
2023/09/22 14:03:14;;;;;;;1.63;1.13;;;;;;;;;;4918525;29;20266;-73
2023/09/22 14:05:40;;;;;;;1.27;1.17;;;;;;;;;;4929883;29;20196;-74
2023/09/22 14:08:05;;;;;;;1.80;1.27;;;;;;;;;;4936922;29;20235;-73
2023/09/22 14:10:30;;;;;;;1.90;1.00;;;;;;;;;;4934249;29;20180;-73
2023/09/22 14:12:56;;;;;;;1.83;1.20;;;;;;;;;;4929900;29;20239;-74
2023/09/22 14:15:21;;;;;;;2.83;1.40;;;;;;;;;;4931050;29;20257;-74
2023/09/22 14:17:48;;;;;;;2.97;1.27;;;;;;;;;;4933060;29;20213;-74
2023/09/22 14:20:13;;;;;;;2.70;1.40;;;;;;;;;;4932670;29;20196;-74
2023/09/22 14:22:39;;;;;;;2.27;1.30;;;;;;;;;;4918524;29;20184;-74
2023/09/22 14:25:04;;;;;;;1.30;1.20;;;;;;;;;;4919395;29;20192;-73
2023/09/22 14:27:29;;;;;;;1.03;0.93;;;;;;;;;;4916900;29;20198;-74
2023/09/22 14:29:54;;;;;;;3.53;1.00;;;;;;;;;;4936558;29;20195;-74
2023/09/22 14:32:19;;;;;;;1.07;0.90;;;;;;;;;;4933651;29;20211;-74
2023/09/22 14:34:45;;;;;;;2.33;1.40;;;;;;;;;;4919776;29;20235;-74
2023/09/22 14:37:10;;;;;;;2.93;1.13;;;;;;;;;;4925188;29;20194;-73
2023/09/22 14:39:35;;;;;;;4.33;1.30;;;;;;;;;;4935217;29;20207;-73
2023/09/22 14:42:00;;;;;;;1.33;1.13;;;;;;;;;;4934269;29;20185;-73
2023/09/22 14:44:26;;;;;;;6.13;1.40;;;;;;;;;;4930747;29;20273;-74
2023/09/22 14:46:51;;;;;;;1.50;1.03;;;;;;;;;;4933614;29;20236;-74
2023/09/22 14:49:17;;;;;;;3.10;1.10;;;;;;;;;;4916921;29;20217;-74
2023/09/22 14:51:44;;;;;;;1.50;1.37;;;;;;;;;;4916717;29;20200;-73